Terminal Aerodrome Forecast
Issued by NWS Sterling, VA

Home | Current Version | Previous Version | Text Only | Print | Product List | Glossary On
Versions: 1 2 3 4 5 6 7 8 9 10 11 12 13 14 15 16 17 18 19 20 21 22 23 24 25
000
FTUS41 KLWX 131159 AAA
TAFDCA
TAF AMD
KDCA 131159Z 1312/1412 31018G35KT 6SM -SHSN FEW030 BKN045
      TEMPO 1312/1313 2SM -SHSN
     FM131400 31019G40KT P6SM SCT030 BKN045
     FM131800 31018G35KT P6SM SCT050
     FM132300 31017G29KT P6SM SCT050
     FM140600 31014G24KT P6SM FEW250
     FM141100 32013G20KT P6SM FEW250=

USA.gov is the U.S. government's official web portal to all federal, state and local government web resources and services.